Gainesville Regional Airport
KGNV : now visible

Airfield :











YOU CAN JOIN US ON...

 
LOGIN :

Register | Disclaimer

   EN    FR    IT 

 









Legend :    VFR   Marginal VFR   IFR   Intensive IFR   Very Intensive IFR
Visi :
Ceiling :
>= 8 km
>= 3000ft
5 to 8 km
1000 to 3000 ft
1500m to 5 km
500 to 1000 ft
800 to 1500m
200 to 500 ft
< 800m
< 200 ft
Symbols :   Thunderstorms  Fog  Heavy snow  Heavy precipitations  Wind > 20 kt






- Airport Elevation : 152 ft
- IATA code : GNV


KGNV - Gainesville Regional

CURRENT METAR :
  • 280053Z 33004KT 10SM BKN070 OVC080 15/11 A2996 RMK AO2 SLP144 T01500111

EXPIRED METARs :
  • 272353Z 00000KT 10SM OVC050 16/11 A2995 RMK AO2 SLP140 60000 T01560106 10178 20156 53004
  • 272253Z 28003KT 10SM OVC049 16/10 A2993 RMK AO2 SLP134 T01610100

TAF KGNV
Valid from the 28 at 00:00 until the 29 at 00:00 UTC


272342Z 2800/2824 31003KT P6SM SCT050 BKN080
FM280430 34003KT P6SM BKN025
FM280700 34006KT P6SM FEW025
FM281500 01009KT P6SM FEW250



MET'MAP, your aeronautical weather chart ! - Copyright ORBIFLY December 2007 - Disclaimer

ORBIFLY MET'MAP TEAM :

Programming & Development : Alexandra Zaïnal
Concept & original design : Baudouin d'Aumeries
Assistance for programming : Marc-Olivier Méhu
Technical & hardware support : Manuel Goepfert

Contact : metmap@orbifly.com




SOURCES & CREDITS :

   NOAA       Earth
Advisory